createdAt,value
2018-03-11T00:03:11.000Z,20.6
2018-03-11T00:13:12.000Z,20.6
2018-03-11T00:23:11.000Z,20.6
2018-03-11T00:33:11.000Z,20.6
2018-03-11T00:43:11.000Z,20.6
2018-03-11T00:53:11.000Z,20.7
2018-03-11T01:03:11.000Z,20.6
2018-03-11T01:13:11.000Z,20.6
2018-03-11T01:23:13.000Z,20.6
2018-03-11T01:33:11.000Z,20.6
2018-03-11T01:43:11.000Z,20.6
2018-03-11T01:53:11.000Z,20.7
2018-03-11T02:03:11.000Z,20.6
2018-03-11T02:13:11.000Z,20.6
2018-03-11T02:23:11.000Z,20.6
2018-03-11T02:33:11.000Z,20.6
2018-03-11T02:43:11.000Z,20.6
2018-03-11T02:53:11.000Z,20.4
2018-03-11T03:03:11.000Z,20.6
2018-03-11T03:13:11.000Z,20.6
2018-03-11T03:23:11.000Z,20.6
2018-03-11T03:33:11.000Z,20.6
2018-03-11T03:43:11.000Z,20.7
2018-03-11T03:53:11.000Z,20.6
2018-03-11T04:03:11.000Z,20.6
2018-03-11T04:13:11.000Z,20.4
2018-03-11T04:23:11.000Z,20.6
2018-03-11T04:33:11.000Z,20.6
2018-03-11T04:43:11.000Z,20.6
2018-03-11T04:53:11.000Z,20.5
2018-03-11T05:03:11.000Z,20.5
2018-03-11T05:13:11.000Z,20.5
2018-03-11T05:23:12.000Z,20.5
2018-03-11T05:33:12.000Z,20.4
2018-03-11T05:43:12.000Z,20.6
2018-03-11T05:53:12.000Z,20.5
2018-03-11T06:03:12.000Z,20.4
2018-03-11T06:13:12.000Z,20.5
2018-03-11T06:23:12.000Z,20.6
2018-03-11T06:33:12.000Z,20.4
2018-03-11T06:43:12.000Z,20.4
2018-03-11T06:53:12.000Z,20.6
2018-03-11T07:03:12.000Z,20.5
2018-03-11T07:13:12.000Z,20.5
2018-03-11T07:23:12.000Z,20.4
2018-03-11T07:33:12.000Z,20.5
2018-03-11T07:43:12.000Z,20.4
2018-03-11T07:53:12.000Z,20.5
2018-03-11T08:03:12.000Z,20.5
2018-03-11T08:13:12.000Z,20.4
2018-03-11T08:23:12.000Z,20.5
2018-03-11T08:33:12.000Z,20.5
2018-03-11T08:43:12.000Z,20.5
2018-03-11T08:53:12.000Z,20.5
2018-03-11T09:03:12.000Z,20.5
2018-03-11T09:13:12.000Z,20.5
2018-03-11T09:23:12.000Z,20.5
2018-03-11T09:33:12.000Z,20.5
2018-03-11T09:43:12.000Z,20.1
2018-03-11T09:53:12.000Z,19.9
2018-03-11T10:03:12.000Z,20
2018-03-11T10:13:12.000Z,20
2018-03-11T10:23:12.000Z,20
2018-03-11T10:33:12.000Z,20
2018-03-11T10:43:12.000Z,19.9
2018-03-11T10:53:12.000Z,20
2018-03-11T11:03:12.000Z,20
2018-03-11T11:13:12.000Z,20.2
2018-03-11T11:23:12.000Z,20.1
2018-03-11T11:33:12.000Z,20.3
2018-03-11T11:43:12.000Z,20.5
2018-03-11T11:53:13.000Z,20.6
2018-03-11T12:03:12.000Z,20.6
2018-03-11T12:13:12.000Z,20.8
2018-03-11T12:23:13.000Z,21
2018-03-11T12:33:13.000Z,21.1
2018-03-11T12:43:13.000Z,21
2018-03-11T12:53:13.000Z,20.8
2018-03-11T13:03:13.000Z,20.9
2018-03-11T13:13:13.000Z,21
2018-03-11T13:23:15.000Z,21
2018-03-11T13:33:13.000Z,21.1
2018-03-11T13:43:13.000Z,21.1
2018-03-11T13:53:13.000Z,21.1
2018-03-11T14:03:13.000Z,21.1
2018-03-11T14:13:13.000Z,21
2018-03-11T14:23:13.000Z,21
2018-03-11T14:33:13.000Z,21
2018-03-11T14:43:13.000Z,21.1
2018-03-11T14:53:14.000Z,21.1
2018-03-11T15:03:13.000Z,21
2018-03-11T15:13:13.000Z,21.1
2018-03-11T15:23:13.000Z,21.1
2018-03-11T15:33:13.000Z,21.1
2018-03-11T15:43:13.000Z,21.3
2018-03-11T15:53:13.000Z,21.3
2018-03-11T16:03:13.000Z,21.3
2018-03-11T16:13:13.000Z,21.3
2018-03-11T16:23:13.000Z,21.3
2018-03-11T16:33:13.000Z,21.2
2018-03-11T16:43:13.000Z,21.3
2018-03-11T16:53:13.000Z,21.2
2018-03-11T17:03:14.000Z,21.3
2018-03-11T17:13:13.000Z,21.3
2018-03-11T17:23:13.000Z,21.2
2018-03-11T17:33:13.000Z,21.2
2018-03-11T17:43:13.000Z,21.1
2018-03-11T17:53:13.000Z,21.2
2018-03-11T18:03:13.000Z,21.2
2018-03-11T18:13:13.000Z,21.1
2018-03-11T18:23:14.000Z,21.1
2018-03-11T18:33:17.000Z,21.1
2018-03-11T18:43:13.000Z,21
2018-03-11T18:53:13.000Z,21.2
2018-03-11T19:03:13.000Z,21.2
2018-03-11T19:13:14.000Z,21
2018-03-11T19:23:14.000Z,21.1
2018-03-11T19:33:14.000Z,21.1
2018-03-11T19:43:15.000Z,21.2
2018-03-11T19:53:14.000Z,21.2
2018-03-11T20:03:14.000Z,21.2
2018-03-11T20:13:17.000Z,21.1
2018-03-11T20:23:16.000Z,21.3
2018-03-11T20:33:14.000Z,21.2
2018-03-11T20:43:15.000Z,21.1
2018-03-11T20:53:16.000Z,21.1
2018-03-11T21:03:14.000Z,21.1
2018-03-11T21:23:14.000Z,21.1
2018-03-11T21:33:14.000Z,21.1
2018-03-11T21:43:14.000Z,21.2
2018-03-11T21:53:14.000Z,20.7
2018-03-11T22:03:14.000Z,20.1
2018-03-11T22:13:14.000Z,19.8
2018-03-11T22:23:15.000Z,19.5
2018-03-11T22:33:14.000Z,19.3
2018-03-11T22:43:14.000Z,19.3
2018-03-11T22:53:14.000Z,19.2
2018-03-11T23:03:14.000Z,19.2
2018-03-11T23:13:15.000Z,19
2018-03-11T23:23:14.000Z,18.9
2018-03-11T23:33:14.000Z,18.8
2018-03-11T23:43:14.000Z,18.8
2018-03-11T23:53:14.000Z,18.7
